Time;durP1;ratioP1;P1;durP2;ratioP2;P2;SDS_P1;SDS_P2;PMS_P1;PMS_P2;Temp;Humidity;BMP_temperature;BMP_pressure;BME280_temperature;BME280_humidity;BME280_pressure;Samples;Min_cycle;Max_cycle;Signal;HPM_P1;HPM_P2
2022/03/23 00:01:07;;;;;;;23.83;15.55;;;9.80;99.00;;;;;;5039916;28;20170;-83
2022/03/23 00:03:34;;;;;;;22.73;15.70;;;9.80;99.00;;;;;;5017925;28;20471;-83
2022/03/23 00:06:01;;;;;;;24.58;15.65;;;9.70;99.40;;;;;;5004507;28;20048;-83
2022/03/23 00:08:27;;;;;;;25.05;16.83;;;9.60;99.60;;;;;;5031442;28;20063;-84
2022/03/23 00:10:52;;;;;;;27.25;16.70;;;9.60;99.90;;;;;;5009249;28;20032;-83
2022/03/23 00:13:18;;;;;;;26.52;17.13;;;9.50;99.90;;;;;;5035796;28;20148;-83
2022/03/23 00:15:44;;;;;;;24.83;15.98;;;9.40;99.90;;;;;;5020858;28;20037;-83
2022/03/23 00:18:10;;;;;;;25.77;15.75;;;9.40;99.90;;;;;;5011527;28;20037;-83
2022/03/23 00:20:35;;;;;;;23.58;15.25;;;9.30;99.90;;;;;;5003245;28;20414;-83
2022/03/23 00:23:01;;;;;;;25.10;17.30;;;9.30;99.90;;;;;;5027732;28;20037;-84
2022/03/23 00:25:27;;;;;;;22.58;15.00;;;9.20;99.90;;;;;;5021366;28;20045;-83
2022/03/23 00:27:52;;;;;;;27.35;16.63;;;9.10;99.90;;;;;;5000021;28;20041;-83
2022/03/23 00:30:18;;;;;;;21.52;13.57;;;9.10;99.90;;;;;;5013471;28;20109;-83
2022/03/23 00:32:43;;;;;;;25.95;15.90;;;9.00;99.90;;;;;;5032747;28;20155;-83
2022/03/23 00:35:09;;;;;;;25.25;16.05;;;9.00;99.90;;;;;;4997860;28;20394;-82
2022/03/23 00:37:35;;;;;;;27.05;16.30;;;9.00;99.90;;;;;;5037200;28;20049;-83
2022/03/23 00:40:01;;;;;;;22.38;15.35;;;8.90;99.90;;;;;;5010584;28;20041;-83
2022/03/23 00:42:27;;;;;;;27.17;15.95;;;8.90;99.90;;;;;;5000758;28;20045;-83
2022/03/23 00:44:52;;;;;;;22.27;14.10;;;8.80;99.90;;;;;;4996519;28;20537;-83
2022/03/23 00:47:18;;;;;;;21.30;14.07;;;8.80;99.90;;;;;;5031748;28;20037;-84
2022/03/23 00:49:45;;;;;;;20.75;12.90;;;8.70;99.90;;;;;;4995649;28;20390;-83
2022/03/23 00:52:11;;;;;;;24.75;15.93;;;8.70;99.90;;;;;;4999753;28;20033;-83
2022/03/23 00:54:37;;;;;;;24.48;15.88;;;8.60;99.90;;;;;;5016744;28;20128;-83
2022/03/23 00:57:04;;;;;;;23.75;15.75;;;8.60;99.90;;;;;;5024346;28;20037;-82
2022/03/23 00:59:30;;;;;;;24.55;15.60;;;8.50;99.90;;;;;;5015041;28;20139;-83
2022/03/23 01:01:56;;;;;;;23.73;14.85;;;8.50;99.90;;;;;;5018485;28;20128;-83
2022/03/23 01:04:23;;;;;;;24.85;15.80;;;8.50;99.90;;;;;;5036405;28;20037;-83
2022/03/23 01:06:49;;;;;;;25.10;15.73;;;8.50;99.90;;;;;;5033301;28;20635;-83
2022/03/23 01:09:15;;;;;;;25.05;16.00;;;8.40;99.90;;;;;;5032874;28;20143;-83
2022/03/23 01:11:40;;;;;;;26.63;15.52;;;8.30;99.90;;;;;;5014331;28;20061;-84
2022/03/23 01:14:07;;;;;;;25.98;15.20;;;8.30;99.90;;;;;;5033730;28;20067;-83
2022/03/23 01:16:33;;;;;;;23.70;15.68;;;8.20;99.90;;;;;;5010850;28;20104;-83
2022/03/23 01:18:59;;;;;;;21.48;14.52;;;8.20;99.90;;;;;;4990125;28;20959;-83
2022/03/23 01:21:25;;;;;;;22.77;14.13;;;8.10;99.90;;;;;;5011962;28;20082;-83
2022/03/23 01:23:51;;;;;;;25.02;14.82;;;8.10;99.90;;;;;;4998921;28;20053;-84
2022/03/23 01:26:17;;;;;;;24.77;14.32;;;8.10;99.90;;;;;;5020805;28;20112;-83
2022/03/23 01:28:44;;;;;;;21.65;13.95;;;8.10;99.90;;;;;;5030784;28;20034;-83
2022/03/23 01:31:10;;;;;;;24.45;14.70;;;8.00;99.90;;;;;;5031105;28;20128;-84
2022/03/23 01:33:36;;;;;;;27.05;15.82;;;8.10;99.90;;;;;;5017265;28;20320;-83
2022/03/23 01:36:02;;;;;;;28.17;15.63;;;8.10;99.90;;;;;;4995133;28;20088;-83
2022/03/23 01:38:28;;;;;;;28.52;16.83;;;8.10;99.90;;;;;;5014852;28;20049;-83
2022/03/23 01:40:54;;;;;;;31.88;19.02;;;8.20;99.90;;;;;;5020939;28;20033;-83
2022/03/23 01:43:20;;;;;;;34.22;16.95;;;8.20;99.90;;;;;;5020204;28;20513;-83
2022/03/23 01:45:46;;;;;;;29.95;17.73;;;8.20;99.90;;;;;;5020730;28;20348;-83
2022/03/23 01:48:11;;;;;;;30.00;18.27;;;8.20;99.90;;;;;;4997648;28;20099;-83
2022/03/23 01:50:37;;;;;;;32.88;20.70;;;8.20;99.90;;;;;;5032883;28;20533;-83
2022/03/23 01:53:03;;;;;;;33.47;18.88;;;8.20;99.90;;;;;;5017793;28;20728;-83
2022/03/23 01:55:29;;;;;;;36.85;20.90;;;8.20;99.90;;;;;;5031408;28;20033;-83
2022/03/23 01:57:54;;;;;;;34.80;18.92;;;8.20;99.90;;;;;;5034794;28;20135;-83
2022/03/23 02:00:21;;;;;;;36.42;21.88;;;8.10;99.90;;;;;;5020227;28;20049;-83
2022/03/23 02:02:46;;;;;;;33.78;20.38;;;8.10;99.90;;;;;;5000962;28;20033;-83
2022/03/23 02:05:13;;;;;;;34.40;19.52;;;8.10;99.90;;;;;;5019277;28;20048;-83
2022/03/23 02:07:39;;;;;;;36.60;21.30;;;8.10;99.90;;;;;;5006650;28;20092;-84
2022/03/23 02:10:08;;;;;;;30.95;19.00;;;8.10;99.90;;;;;;5038376;28;20434;-83
2022/03/23 02:12:34;;;;;;;32.45;17.52;;;8.10;99.90;;;;;;4995401;28;20099;-83
2022/03/23 02:15:10;;;;;;;36.33;20.17;;;8.10;99.90;;;;;;5005026;28;20036;-84
2022/03/23 02:17:36;;;;;;;32.03;17.92;;;8.10;99.90;;;;;;5038165;28;20437;-84
2022/03/23 02:20:01;;;;;;;33.97;19.08;;;8.00;99.90;;;;;;5027994;28;20053;-84
2022/03/23 02:22:27;;;;;;;27.30;16.50;;;8.00;99.90;;;;;;5031950;28;20549;-84
2022/03/23 02:24:53;;;;;;;25.60;16.33;;;7.90;99.90;;;;;;5031318;28;20107;-84
2022/03/23 02:27:19;;;;;;;25.08;14.85;;;7.80;99.90;;;;;;5019083;28;20136;-84
2022/03/23 02:29:45;;;;;;;26.13;14.95;;;7.80;99.90;;;;;;5016432;28;20037;-84
2022/03/23 02:32:13;;;;;;;27.80;15.75;;;7.70;99.90;;;;;;5015489;28;20167;-84
2022/03/23 02:34:39;;;;;;;25.95;14.95;;;7.70;99.90;;;;;;5033737;28;20037;-83
2022/03/23 02:37:05;;;;;;;25.73;16.17;;;7.60;99.90;;;;;;5016507;28;20037;-84
2022/03/23 02:39:30;;;;;;;25.48;15.77;;;7.50;99.90;;;;;;5035254;28;20040;-83
2022/03/23 02:41:56;;;;;;;25.92;15.73;;;7.50;99.90;;;;;;5020539;28;20044;-84
2022/03/23 02:44:23;;;;;;;26.77;16.08;;;7.50;99.90;;;;;;5005628;28;20500;-84
2022/03/23 02:46:48;;;;;;;27.25;15.93;;;7.40;99.90;;;;;;4997583;28;20041;-83
2022/03/23 02:49:20;;;;;;;26.80;16.83;;;7.30;99.90;;;;;;5030197;28;20034;-84
2022/03/23 02:51:47;;;;;;;25.33;15.03;;;7.30;99.90;;;;;;5029626;28;20458;-84
2022/03/23 03:03:18;;;;;;;23.40;14.80;;;7.10;99.90;;;;;;5035104;28;20042;-83
2022/03/23 03:05:44;;;;;;;25.38;16.45;;;7.00;99.90;;;;;;5035763;28;20047;-84
2022/03/23 03:11:10;;;;;;;28.02;16.10;;;7.00;99.90;;;;;;4929815;29;20473;-84
2022/03/23 03:13:36;;;;;;;23.00;13.70;;;7.10;99.90;;;;;;5007916;28;20136;-84
2022/03/23 03:16:03;;;;;;;25.98;16.02;;;7.10;99.90;;;;;;5014272;28;20033;-84
2022/03/23 03:18:33;;;;;;;27.88;16.67;;;7.10;99.90;;;;;;5023151;28;20393;-84
2022/03/23 03:21:00;;;;;;;25.92;15.43;;;7.10;99.90;;;;;;5001838;28;20486;-84
2022/03/23 03:23:26;;;;;;;27.13;14.18;;;7.20;99.90;;;;;;5018140;28;20051;-84
2022/03/23 03:25:52;;;;;;;26.23;16.42;;;7.20;99.90;;;;;;5012086;28;20188;-84
2022/03/23 03:28:17;;;;;;;28.50;17.15;;;7.20;99.90;;;;;;5029991;28;20160;-83
2022/03/23 03:30:43;;;;;;;28.90;17.33;;;7.10;99.90;;;;;;5039788;28;20032;-83
2022/03/23 03:33:09;;;;;;;29.15;17.17;;;7.10;99.90;;;;;;5014781;28;20125;-83
2022/03/23 03:35:35;;;;;;;25.40;15.02;;;7.00;99.90;;;;;;5032386;28;20029;-84
2022/03/23 03:38:00;;;;;;;27.25;15.38;;;6.90;99.90;;;;;;5034664;28;20037;-84
2022/03/23 03:40:26;;;;;;;22.42;13.70;;;6.90;99.90;;;;;;5015627;28;20100;-84
2022/03/23 03:42:52;;;;;;;22.23;14.18;;;6.80;99.90;;;;;;5032469;28;20030;-84
2022/03/23 03:45:17;;;;;;;27.90;16.45;;;6.80;99.90;;;;;;5018108;28;20045;-84
2022/03/23 03:47:44;;;;;;;26.80;15.50;;;6.80;99.90;;;;;;5014596;28;20072;-84
2022/03/23 03:50:10;;;;;;;25.95;15.18;;;6.70;99.90;;;;;;5024903;28;20048;-84
2022/03/23 03:52:35;;;;;;;26.27;15.50;;;6.70;99.90;;;;;;5024450;28;20029;-84
2022/03/23 03:55:01;;;;;;;26.70;15.98;;;6.70;99.90;;;;;;4992808;28;20047;-84
2022/03/23 03:57:27;;;;;;;25.90;16.02;;;6.70;99.90;;;;;;5024146;28;20393;-83
2022/03/23 03:59:52;;;;;;;25.17;15.13;;;6.70;99.90;;;;;;5027855;28;20449;-83
2022/03/23 04:02:19;;;;;;;27.23;15.50;;;6.60;99.90;;;;;;5026148;28;20037;-83
2022/03/23 04:04:44;;;;;;;27.60;15.70;;;6.60;99.90;;;;;;5026075;28;20045;-84
2022/03/23 04:07:10;;;;;;;28.15;16.02;;;6.60;99.90;;;;;;5004422;28;20084;-84
2022/03/23 04:09:36;;;;;;;27.55;16.77;;;6.60;99.90;;;;;;5006788;28;20048;-84
2022/03/23 04:12:01;;;;;;;29.23;15.95;;;6.60;99.90;;;;;;5006145;28;20044;-84
2022/03/23 04:14:27;;;;;;;27.95;16.70;;;6.60;99.90;;;;;;5002555;28;20249;-84
2022/03/23 04:16:53;;;;;;;25.42;14.38;;;6.60;99.90;;;;;;5006375;28;20525;-84
2022/03/23 04:19:18;;;;;;;28.88;16.10;;;6.50;99.90;;;;;;5006482;28;20139;-84
2022/03/23 04:21:45;;;;;;;25.10;15.52;;;6.50;99.90;;;;;;5003892;28;20128;-84
2022/03/23 04:24:11;;;;;;;27.75;15.93;;;6.50;99.90;;;;;;5005560;28;20497;-84
2022/03/23 04:26:36;;;;;;;25.88;14.68;;;6.40;99.90;;;;;;5006749;28;20092;-83
2022/03/23 04:29:02;;;;;;;22.75;14.07;;;6.30;99.90;;;;;;5009307;28;20073;-83
2022/03/23 04:31:28;;;;;;;22.70;13.13;;;6.30;99.90;;;;;;5010005;28;20037;-83
2022/03/23 04:33:54;;;;;;;31.45;16.02;;;6.20;99.90;;;;;;5009360;28;20041;-84
2022/03/23 04:36:20;;;;;;;28.15;15.15;;;6.20;99.90;;;;;;5011568;28;20467;-84
2022/03/23 04:38:46;;;;;;;25.10;15.30;;;6.20;99.90;;;;;;5011618;28;20111;-84
2022/03/23 04:41:11;;;;;;;24.83;14.73;;;6.10;99.90;;;;;;5011325;28;20133;-84
2022/03/23 04:43:38;;;;;;;24.08;14.13;;;6.10;99.90;;;;;;5009349;28;20140;-83
2022/03/23 04:46:05;;;;;;;27.20;15.25;;;6.10;99.90;;;;;;5011321;28;20049;-84
2022/03/23 04:48:31;;;;;;;22.70;14.40;;;6.10;99.90;;;;;;5011027;28;20049;-83
2022/03/23 04:50:57;;;;;;;25.77;15.80;;;6.00;99.90;;;;;;5012351;28;20410;-83
2022/03/23 04:53:22;;;;;;;24.73;14.20;;;6.00;99.90;;;;;;5013007;28;20045;-84
2022/03/23 04:55:48;;;;;;;26.15;14.45;;;6.00;99.90;;;;;;5012083;28;20049;-84
2022/03/23 04:58:14;;;;;;;25.75;15.30;;;6.00;99.90;;;;;;5009802;28;20070;-84
2022/03/23 05:00:40;;;;;;;22.95;14.13;;;6.00;99.90;;;;;;5011299;28;20585;-83
2022/03/23 05:03:05;;;;;;;21.75;12.70;;;6.00;99.90;;;;;;4991403;28;20045;-83
2022/03/23 05:05:31;;;;;;;23.02;14.38;;;6.00;99.90;;;;;;5010869;28;20042;-84
2022/03/23 05:07:57;;;;;;;28.30;16.63;;;6.00;99.90;;;;;;4988923;28;20077;-84
2022/03/23 05:10:22;;;;;;;27.02;14.32;;;6.00;99.90;;;;;;4989428;28;20375;-84
2022/03/23 05:12:49;;;;;;;24.50;15.18;;;6.00;99.90;;;;;;5011396;28;20115;-83
2022/03/23 05:15:16;;;;;;;26.67;14.55;;;6.00;99.90;;;;;;4997630;28;20045;-83
2022/03/23 05:17:44;;;;;;;23.75;14.63;;;6.00;99.90;;;;;;5010410;28;20053;-83
2022/03/23 05:20:10;;;;;;;24.00;14.13;;;6.00;99.90;;;;;;5006427;28;20049;-84
2022/03/23 05:22:37;;;;;;;30.60;16.73;;;6.00;99.90;;;;;;5011960;28;20514;-84
2022/03/23 05:25:06;;;;;;;27.88;16.50;;;6.00;99.90;;;;;;5015650;28;20050;-84
2022/03/23 05:27:37;;;;;;;25.92;14.98;;;5.90;99.90;;;;;;4986297;28;20038;-84
2022/03/23 05:30:05;;;;;;;23.92;13.82;;;5.90;99.90;;;;;;4976883;28;20053;-84
2022/03/23 05:32:31;;;;;;;23.27;13.98;;;5.90;99.90;;;;;;5009944;28;20039;-83
2022/03/23 05:34:56;;;;;;;25.45;13.50;;;5.90;99.90;;;;;;5007640;28;20037;-84
2022/03/23 05:37:22;;;;;;;23.33;14.25;;;5.90;99.90;;;;;;5006666;28;20449;-84
2022/03/23 05:39:47;;;;;;;21.42;13.65;;;5.80;99.90;;;;;;5003834;28;20041;-83
2022/03/23 05:42:13;;;;;;;33.00;16.13;;;5.80;99.90;;;;;;4990790;28;20400;-84
2022/03/23 05:44:39;;;;;;;28.30;15.15;;;5.80;99.90;;;;;;5010424;28;20034;-84
2022/03/23 05:47:05;;;;;;;27.85;16.15;;;5.70;99.90;;;;;;5005587;28;20083;-83
2022/03/23 05:49:31;;;;;;;30.75;16.20;;;5.70;99.90;;;;;;5005827;28;20047;-84
2022/03/23 05:51:57;;;;;;;27.17;16.02;;;5.70;99.90;;;;;;4990530;28;20044;-84
2022/03/23 05:54:23;;;;;;;22.98;14.18;;;5.70;99.90;;;;;;5007419;28;20042;-83
2022/03/23 05:56:50;;;;;;;28.45;15.77;;;5.70;99.90;;;;;;4990401;28;20038;-83
2022/03/23 05:59:16;;;;;;;29.50;16.17;;;5.70;99.90;;;;;;5008464;28;20049;-83
2022/03/23 06:01:42;;;;;;;28.70;14.60;;;5.70;99.90;;;;;;5006504;28;20033;-84
2022/03/23 06:04:08;;;;;;;25.75;15.55;;;5.70;99.90;;;;;;5007175;28;20374;-84
2022/03/23 06:06:34;;;;;;;29.02;16.10;;;5.70;99.90;;;;;;5002728;28;20125;-83
2022/03/23 06:08:59;;;;;;;26.05;15.73;;;5.70;99.90;;;;;;5011023;28;20566;-84
2022/03/23 06:11:25;;;;;;;33.53;16.75;;;5.70;99.90;;;;;;5028786;28;20075;-84
2022/03/23 06:13:51;;;;;;;24.95;15.20;;;5.70;99.90;;;;;;5007227;28;20060;-84
2022/03/23 06:16:16;;;;;;;24.75;14.18;;;5.80;99.90;;;;;;5010463;28;20056;-84
2022/03/23 06:18:42;;;;;;;26.38;14.57;;;5.80;99.90;;;;;;5006528;28;20037;-84
2022/03/23 06:21:08;;;;;;;30.70;17.10;;;5.80;99.90;;;;;;5010239;28;20393;-84
2022/03/23 06:23:34;;;;;;;28.85;16.13;;;5.80;99.90;;;;;;4992173;28;20044;-84
2022/03/23 06:26:01;;;;;;;22.65;14.43;;;5.90;99.90;;;;;;5011614;28;20033;-84
2022/03/23 06:28:27;;;;;;;26.88;16.70;;;5.90;99.90;;;;;;5007344;28;20052;-84
2022/03/23 06:30:53;;;;;;;27.35;16.75;;;6.00;99.90;;;;;;5016441;28;20033;-84
2022/03/23 06:33:19;;;;;;;24.70;14.52;;;6.00;99.90;;;;;;5007760;28;20041;-84
2022/03/23 06:35:46;;;;;;;20.92;11.98;;;6.10;99.90;;;;;;5012847;28;20038;-84
2022/03/23 06:38:12;;;;;;;24.80;15.30;;;6.10;99.90;;;;;;5039942;28;20025;-83
2022/03/23 06:40:38;;;;;;;27.20;15.13;;;6.20;99.90;;;;;;5006518;28;20066;-84
2022/03/23 06:43:03;;;;;;;24.27;14.48;;;6.30;99.90;;;;;;5004094;28;20025;-84
2022/03/23 06:45:29;;;;;;;25.85;14.32;;;6.30;99.90;;;;;;4999109;28;20080;-84
2022/03/23 06:47:55;;;;;;;27.80;16.05;;;6.40;99.90;;;;;;5029964;28;20164;-84
2022/03/23 06:50:21;;;;;;;28.02;16.38;;;6.40;99.90;;;;;;5031749;28;20041;-83
2022/03/23 06:52:46;;;;;;;22.92;14.73;;;6.50;99.90;;;;;;5014783;28;20045;-83
2022/03/23 06:55:12;;;;;;;31.55;16.25;;;6.60;99.90;;;;;;5033743;28;20037;-83
2022/03/23 06:57:38;;;;;;;29.88;15.77;;;6.70;99.90;;;;;;5020069;28;20053;-84
2022/03/23 07:00:12;;;;;;;24.80;15.82;;;6.80;99.90;;;;;;5035264;28;20033;-83
2022/03/23 07:02:47;;;;;;;30.33;16.77;;;6.90;99.90;;;;;;5010228;28;20501;-83
2022/03/23 07:05:15;;;;;;;26.27;14.73;;;7.00;99.90;;;;;;5028418;28;20087;-83
2022/03/23 07:10:26;;;;;;;25.67;15.52;;;7.20;99.90;;;;;;5014933;28;20458;-84
2022/03/23 07:12:51;;;;;;;24.40;14.55;;;7.30;99.90;;;;;;5022240;28;20038;-84
2022/03/23 07:15:17;;;;;;;24.98;14.82;;;7.30;99.90;;;;;;4996732;28;20043;-84
2022/03/23 07:17:43;;;;;;;24.85;14.93;;;7.40;99.90;;;;;;5015629;28;20052;-84
2022/03/23 07:20:09;;;;;;;28.27;15.45;;;7.50;99.90;;;;;;5013117;28;20049;-84
2022/03/23 07:22:35;;;;;;;26.10;15.40;;;7.60;99.90;;;;;;5012421;28;20524;-84
2022/03/23 07:25:00;;;;;;;25.52;16.33;;;7.70;99.90;;;;;;5012730;28;20037;-83
2022/03/23 07:27:26;;;;;;;28.95;16.60;;;7.80;99.90;;;;;;5035607;28;20382;-84
2022/03/23 07:29:52;;;;;;;24.95;15.57;;;7.80;99.90;;;;;;5033546;28;20424;-84
2022/03/23 07:32:18;;;;;;;27.90;15.43;;;7.90;99.90;;;;;;5007073;28;20045;-83
2022/03/23 07:34:44;;;;;;;24.23;15.45;;;8.00;99.90;;;;;;5030127;28;20097;-84
2022/03/23 07:37:09;;;;;;;28.60;16.35;;;8.10;99.90;;;;;;5008987;28;20034;-84
2022/03/23 07:39:35;;;;;;;27.83;16.27;;;8.30;99.90;;;;;;4997344;28;20426;-86
2022/03/23 07:42:02;;;;;;;25.27;14.95;;;8.30;99.90;;;;;;5011865;28;20461;-83
2022/03/23 07:44:35;;;;;;;26.58;15.75;;;8.40;99.90;;;;;;4990705;28;20065;-84
2022/03/23 07:47:15;;;;;;;27.98;15.93;;;8.50;99.90;;;;;;4991268;28;20037;-84
2022/03/23 07:49:41;;;;;;;27.02;14.57;;;8.60;99.90;;;;;;5020098;28;20452;-84
2022/03/23 07:52:08;;;;;;;26.98;16.15;;;8.70;99.90;;;;;;5011211;28;20755;-84
2022/03/23 07:54:33;;;;;;;24.50;15.23;;;8.80;99.90;;;;;;5001304;28;20068;-84
2022/03/23 07:57:00;;;;;;;25.13;16.23;;;9.00;99.90;;;;;;5024769;28;20352;-84
2022/03/23 07:59:27;;;;;;;26.77;15.85;;;9.10;99.90;;;;;;5030028;28;20123;-84
2022/03/23 08:01:52;;;;;;;24.13;15.63;;;9.20;99.90;;;;;;5029458;28;20172;-84
2022/03/23 08:04:18;;;;;;;22.90;14.63;;;9.20;99.90;;;;;;5031052;28;20581;-84
2022/03/23 08:06:43;;;;;;;33.92;16.98;;;9.30;99.90;;;;;;5026387;28;20122;-84
2022/03/23 08:09:09;;;;;;;27.95;16.27;;;9.40;99.70;;;;;;5007231;28;20394;-84
2022/03/23 08:11:35;;;;;;;28.88;16.52;;;9.50;99.10;;;;;;5032020;28;20037;-84
2022/03/23 08:14:01;;;;;;;25.77;15.95;;;9.70;98.90;;;;;;5029486;28;20037;-84
2022/03/23 08:16:27;;;;;;;28.67;15.93;;;9.70;98.30;;;;;;5012189;28;20048;-84
2022/03/23 08:18:53;;;;;;;25.60;16.70;;;9.90;97.90;;;;;;4994788;28;20056;-84
2022/03/23 08:21:21;;;;;;;27.90;16.90;;;10.00;97.50;;;;;;5006385;28;20045;-84
2022/03/23 08:23:50;;;;;;;28.08;17.55;;;10.10;97.00;;;;;;5031139;28;20576;-84
2022/03/23 08:26:17;;;;;;;25.15;14.65;;;10.10;96.50;;;;;;5025049;28;20088;-84
2022/03/23 08:28:44;;;;;;;28.40;16.60;;;10.30;95.60;;;;;;5013369;28;20052;-84
2022/03/23 08:31:10;;;;;;;24.90;17.15;;;10.40;95.10;;;;;;5011089;28;20645;-84
2022/03/23 08:33:37;;;;;;;27.48;16.60;;;10.60;94.90;;;;;;5012745;28;20120;-84
2022/03/23 08:36:04;;;;;;;25.27;15.77;;;10.70;93.90;;;;;;5014410;28;20087;-84
2022/03/23 08:38:30;;;;;;;22.52;15.73;;;10.90;93.50;;;;;;4995822;28;20060;-84
2022/03/23 08:40:56;;;;;;;23.83;14.60;;;11.00;93.30;;;;;;5010561;28;20426;-84
2022/03/23 08:43:22;;;;;;;28.98;16.65;;;11.10;92.90;;;;;;4997300;28;20040;-84
2022/03/23 08:45:48;;;;;;;23.90;15.52;;;11.20;92.10;;;;;;5014528;28;20071;-84
2022/03/23 08:48:14;;;;;;;26.55;16.73;;;11.30;91.80;;;;;;5013217;28;20041;-84
2022/03/23 08:50:42;;;;;;;23.42;15.70;;;11.40;91.40;;;;;;5011567;28;20116;-84
2022/03/23 08:53:07;;;;;;;23.00;15.25;;;11.60;91.00;;;;;;5009983;28;20105;-84
2022/03/23 08:55:33;;;;;;;23.38;15.82;;;11.70;90.60;;;;;;5028118;28;20124;-84
2022/03/23 08:57:59;;;;;;;26.83;16.65;;;11.90;90.30;;;;;;5010220;28;20045;-84
2022/03/23 09:00:25;;;;;;;24.08;15.65;;;12.00;88.00;;;;;;4995705;28;20041;-84
2022/03/23 09:02:51;;;;;;;24.05;15.30;;;12.20;86.60;;;;;;5008367;28;20466;-84
2022/03/23 09:05:19;;;;;;;20.30;14.57;;;12.40;85.20;;;;;;5014668;28;20053;-84
2022/03/23 09:07:45;;;;;;;23.83;16.08;;;12.50;84.80;;;;;;5009201;28;20057;-84
2022/03/23 09:10:13;;;;;;;24.60;16.17;;;12.60;83.70;;;;;;5031540;28;20044;-85
2022/03/23 09:12:39;;;;;;;22.80;15.70;;;12.80;82.60;;;;;;5002252;28;20124;-84
2022/03/23 09:15:07;;;;;;;24.42;15.13;;;12.90;81.50;;;;;;5016158;28;20485;-84
2022/03/23 09:17:33;;;;;;;24.08;15.35;;;13.00;79.90;;;;;;4993873;28;20061;-84
2022/03/23 09:20:00;;;;;;;24.13;15.55;;;13.20;77.20;;;;;;5012380;28;20046;-84
2022/03/23 09:22:27;;;;;;;28.58;16.83;;;13.30;76.60;;;;;;5008550;28;20049;-85
2022/03/23 09:24:53;;;;;;;19.63;14.13;;;13.40;72.90;;;;;;4997459;28;20029;-84
2022/03/23 09:27:19;;;;;;;22.90;14.68;;;13.40;72.20;;;;;;5000671;28;20520;-84
2022/03/23 09:29:45;;;;;;;23.90;14.93;;;13.60;70.20;;;;;;5018253;28;20055;-84
2022/03/23 09:32:12;;;;;;;26.33;14.90;;;13.60;67.10;;;;;;5016037;28;20049;-85
2022/03/23 09:34:38;;;;;;;21.38;14.55;;;13.80;66.10;;;;;;5016609;28;20076;-85
2022/03/23 09:39:49;;;;;;;25.35;15.80;;;13.90;63.40;;;;;;5014614;28;20518;-85
2022/03/23 09:42:18;;;;;;;21.45;14.50;;;14.00;61.30;;;;;;5031493;28;20083;-85
2022/03/23 09:44:48;;;;;;;18.00;13.85;;;14.00;60.20;;;;;;5032225;28;20504;-85
2022/03/23 09:47:14;;;;;;;22.52;13.90;;;14.20;60.10;;;;;;5001833;28;20029;-85
2022/03/23 09:49:40;;;;;;;22.08;14.93;;;14.20;59.10;;;;;;5031018;28;20041;-85
2022/03/23 09:52:06;;;;;;;22.50;15.60;;;14.40;57.70;;;;;;5029983;28;20106;-85
2022/03/23 09:54:32;;;;;;;22.90;14.48;;;14.50;56.80;;;;;;5021792;28;20042;-85
2022/03/23 09:56:58;;;;;;;18.45;14.07;;;14.60;56.20;;;;;;5012070;28;20073;-85
2022/03/23 09:59:23;;;;;;;18.08;13.43;;;14.60;55.00;;;;;;5014054;28;20083;-85
2022/03/23 10:02:01;;;;;;;18.05;12.27;;;14.70;55.00;;;;;;5013882;28;20087;-85
2022/03/23 10:04:49;;;;;;;16.05;11.25;;;14.80;52.10;;;;;;5018716;28;20045;-85
2022/03/23 10:08:01;;;;;;;14.82;11.75;;;15.00;49.40;;;;;;4993691;28;20137;-85
2022/03/23 10:10:59;;;;;;;17.23;11.38;;;15.10;48.40;;;;;;5001588;28;20109;-85
2022/03/23 10:13:43;;;;;;;20.15;12.02;;;15.20;49.70;;;;;;4999949;28;20451;-85
2022/03/23 10:16:50;;;;;;;18.92;12.00;;;15.40;50.00;;;;;;5032258;28;20111;-84
2022/03/23 10:19:16;;;;;;;17.75;11.98;;;15.50;48.00;;;;;;5013936;28;20065;-85
2022/03/23 10:21:42;;;;;;;17.30;12.20;;;15.60;48.00;;;;;;5010730;28;20512;-84
2022/03/23 10:24:07;;;;;;;14.50;10.32;;;15.60;48.50;;;;;;5014669;28;20073;-84
2022/03/23 10:26:36;;;;;;;14.57;10.57;;;15.70;47.90;;;;;;5012022;28;20072;-85
2022/03/23 10:29:03;;;;;;;14.85;10.80;;;15.80;47.70;;;;;;5011716;28;20038;-85
2022/03/23 10:31:29;;;;;;;16.67;10.73;;;15.90;47.00;;;;;;5018138;28;20418;-85
2022/03/23 10:33:59;;;;;;;17.85;10.43;;;16.10;46.40;;;;;;5013318;28;20526;-85
2022/03/23 10:36:28;;;;;;;17.67;12.18;;;16.20;45.70;;;;;;5000209;28;20128;-85
2022/03/23 10:39:00;;;;;;;15.07;11.40;;;16.30;45.40;;;;;;5008062;28;20042;-85
2022/03/23 10:41:26;;;;;;;15.90;11.38;;;16.30;44.00;;;;;;5012722;28;20052;-85
2022/03/23 10:43:52;;;;;;;16.42;10.70;;;16.40;44.10;;;;;;5015477;28;20082;-84
2022/03/23 10:46:20;;;;;;;14.25;10.45;;;16.50;44.70;;;;;;4990602;28;20029;-85
2022/03/23 10:49:01;;;;;;;15.80;11.50;;;16.50;44.90;;;;;;5026757;28;20109;-84
2022/03/23 10:51:32;;;;;;;14.35;10.45;;;16.60;44.40;;;;;;5027256;28;20073;-85
2022/03/23 10:54:00;;;;;;;16.98;11.23;;;16.80;44.00;;;;;;4998303;28;20068;-85
2022/03/23 10:56:30;;;;;;;14.80;11.10;;;16.90;43.50;;;;;;5006621;28;20037;-85
2022/03/23 10:59:16;;;;;;;13.52;9.98;;;16.90;43.60;;;;;;5009770;28;20041;-84
2022/03/23 11:01:57;;;;;;;17.63;10.45;;;17.00;41.90;;;;;;5016457;28;20033;-84
2022/03/23 11:04:24;;;;;;;19.20;9.88;;;17.00;42.10;;;;;;4999995;28;20041;-84
2022/03/23 11:06:50;;;;;;;12.63;9.48;;;17.00;42.10;;;;;;5021530;28;20058;-84
2022/03/23 11:17:51;;;;;;;14.30;9.35;;;17.30;40.90;;;;;;5017763;28;20040;-84
2022/03/23 11:20:24;;;;;;;18.20;10.23;;;17.40;41.60;;;;;;5004443;28;20026;-84
2022/03/23 11:23:23;;;;;;;14.75;9.70;;;17.50;41.40;;;;;;5005421;28;20046;-84
2022/03/23 11:26:02;;;;;;;14.00;9.75;;;17.70;41.20;;;;;;5026646;28;20486;-85
2022/03/23 11:28:32;;;;;;;13.05;8.70;;;17.80;41.10;;;;;;5014127;28;20056;-84
2022/03/23 11:30:58;;;;;;;15.27;10.55;;;18.00;41.10;;;;;;5012112;28;20025;-85
2022/03/23 11:33:26;;;;;;;17.92;10.73;;;18.10;40.80;;;;;;5011196;28;20033;-84
2022/03/23 11:35:53;;;;;;;16.45;10.38;;;18.20;40.20;;;;;;5031079;28;20041;-84
2022/03/23 11:38:27;;;;;;;15.50;10.30;;;18.30;40.70;;;;;;5037244;28;20036;-84
2022/03/23 11:40:55;;;;;;;14.20;10.15;;;18.40;39.60;;;;;;5011424;28;20144;-84
2022/03/23 11:43:24;;;;;;;16.38;11.15;;;18.40;38.50;;;;;;5008696;28;20041;-84
2022/03/23 11:45:51;;;;;;;15.48;9.85;;;18.50;39.10;;;;;;5014280;28;20494;-85
2022/03/23 11:48:36;;;;;;;16.95;10.30;;;18.50;38.70;;;;;;5028649;28;20061;-85
2022/03/23 11:51:29;;;;;;;17.35;8.70;;;18.60;39.20;;;;;;5028360;28;20367;-85
2022/03/23 11:54:13;;;;;;;;;;;18.70;38.30;;;;;;5014469;28;20045;-84
2022/03/23 11:56:56;;;;;;;12.20;8.73;;;18.80;37.30;;;;;;5031441;28;19924;-85
2022/03/23 11:59:26;;;;;;;15.70;7.80;;;18.90;37.20;;;;;;5030296;28;20076;-85
2022/03/23 12:01:53;;;;;;;17.25;7.75;;;19.00;37.70;;;;;;5014686;28;20573;-85
2022/03/23 12:04:21;;;;;;;14.38;7.63;;;19.20;37.70;;;;;;5009335;28;20065;-85
2022/03/23 12:07:03;;;;;;;17.20;8.50;;;19.20;36.90;;;;;;5033938;28;20056;-84
2022/03/23 12:09:37;;;;;;;16.35;7.82;;;19.30;36.40;;;;;;4997901;28;20100;-84
2022/03/23 12:12:11;;;;;;;17.52;8.20;;;19.30;35.90;;;;;;5028154;28;20076;-84
2022/03/23 12:14:39;;;;;;;13.68;7.88;;;19.50;36.00;;;;;;5032516;28;20041;-84
2022/03/23 12:17:07;;;;;;;12.65;8.07;;;19.60;36.50;;;;;;5012429;28;20059;-84
2022/03/23 12:19:53;;;;;;;13.98;7.88;;;19.70;35.60;;;;;;5029981;28;20345;-84
2022/03/23 12:22:59;;;;;;;13.85;7.63;;;19.90;35.20;;;;;;5012076;28;20057;-84
2022/03/23 12:25:52;;;;;;;18.50;7.60;;;20.10;33.80;;;;;;5026558;28;20497;-84
2022/03/23 12:28:40;;;;;;;16.02;8.18;;;20.30;35.60;;;;;;5012474;28;20267;-84
2022/03/23 12:31:13;;;;;;;16.50;7.80;;;20.40;35.20;;;;;;5017063;28;20530;-84
2022/03/23 12:34:18;;;;;;;18.20;7.93;;;20.60;35.10;;;;;;5016164;28;20045;-83
2022/03/23 12:37:01;;;;;;;15.60;7.80;;;20.90;34.10;;;;;;5033277;28;20038;-83
2022/03/23 12:39:39;;;;;;;17.13;7.88;;;21.10;33.90;;;;;;5014991;28;20108;-85
2022/03/23 12:42:16;;;;;;;14.13;7.40;;;21.60;33.60;;;;;;5012064;28;20037;-84
2022/03/23 12:44:57;;;;;;;17.13;7.32;;;22.20;32.70;;;;;;5012767;28;20088;-85
2022/03/23 12:47:27;;;;;;;17.10;7.38;;;22.70;31.30;;;;;;5032402;28;20389;-84
2022/03/23 12:57:49;;;;;;;14.27;6.93;;;23.80;30.40;;;;;;5014649;28;20486;-84
2022/03/23 12:58:39;;;;;;;15.18;7.57;;;24.50;29.30;;;;;;5010766;28;20049;-84
2022/03/23 13:01:19;;;;;;;15.80;7.28;;;24.70;29.80;;;;;;5011319;28;20072;-84
2022/03/23 13:03:44;;;;;;;20.25;6.78;;;24.90;28.40;;;;;;5032672;28;20149;-84
2022/03/23 13:06:15;;;;;;;13.95;6.82;;;25.10;28.60;;;;;;5029452;28;20441;-84
2022/03/23 13:08:49;;;;;;;10.88;6.45;;;25.40;27.80;;;;;;5022767;28;20042;-84
2022/03/23 13:11:26;;;;;;;15.57;5.45;;;25.60;27.80;;;;;;4995310;28;20034;-84
2022/03/23 13:13:57;;;;;;;10.82;4.82;;;25.80;27.40;;;;;;5009448;28;20428;-84